createdAt,value
2023-05-23T00:00:00.660Z,1.1
2023-05-23T00:01:00.612Z,1.1
2023-05-23T00:02:00.685Z,1.1
2023-05-23T00:03:00.705Z,1.1
2023-05-23T00:04:00.799Z,1.1
2023-05-23T00:05:00.615Z,1.1
2023-05-23T00:06:00.615Z,1.1
2023-05-23T00:07:00.609Z,1.1
2023-05-23T00:08:00.645Z,1.1
2023-05-23T00:09:00.624Z,1.1
2023-05-23T00:10:00.650Z,1.1
2023-05-23T00:11:00.655Z,1.1
2023-05-23T00:12:00.633Z,1.1
2023-05-23T00:13:00.642Z,1.1
2023-05-23T00:14:00.639Z,1.1
2023-05-23T00:15:00.630Z,1.1
2023-05-23T00:16:00.631Z,1.1
2023-05-23T00:17:00.689Z,1.1
2023-05-23T00:18:00.852Z,1.1
2023-05-23T00:19:00.691Z,1.1
2023-05-23T00:20:00.641Z,1.1
2023-05-23T00:21:00.910Z,1.1
2023-05-23T00:22:00.652Z,1.1
2023-05-23T00:23:00.637Z,1.1
2023-05-23T00:24:00.631Z,1.1
2023-05-23T00:25:00.642Z,1.1
2023-05-23T00:26:00.669Z,1.1
2023-05-23T00:27:00.642Z,1.1
2023-05-23T00:28:00.655Z,1.1
2023-05-23T00:29:00.650Z,1.1
2023-05-23T00:30:00.730Z,1.1
2023-05-23T00:31:00.692Z,1.1
2023-05-23T00:32:00.682Z,1.1
2023-05-23T00:33:00.745Z,1.1
2023-05-23T00:34:00.662Z,1.1
2023-05-23T00:35:00.661Z,1.1
2023-05-23T00:36:00.723Z,1.1
2023-05-23T00:37:00.665Z,1.1
2023-05-23T00:38:00.687Z,1.1
2023-05-23T00:39:00.653Z,1.1
2023-05-23T00:40:00.654Z,1.1
2023-05-23T00:41:00.663Z,1.1
2023-05-23T00:42:00.655Z,1.1
2023-05-23T00:43:00.661Z,1.1
2023-05-23T00:44:00.651Z,1.1
2023-05-23T00:45:00.681Z,1.1
2023-05-23T00:46:00.725Z,1.1
2023-05-23T00:47:00.677Z,1.1
2023-05-23T00:48:00.725Z,1.1
2023-05-23T00:49:00.684Z,1.1
2023-05-23T00:50:00.682Z,1.1
2023-05-23T00:51:00.720Z,1.1
2023-05-23T00:52:00.668Z,1.1
2023-05-23T00:53:00.674Z,1.1
2023-05-23T00:54:00.735Z,1.1
2023-05-23T00:55:00.682Z,1.1
2023-05-23T00:56:00.683Z,1.1
2023-05-23T00:57:00.681Z,1.1
2023-05-23T00:58:00.697Z,1.1
2023-05-23T00:59:00.695Z,1.1
2023-05-23T01:00:00.704Z,1.1
2023-05-23T01:01:00.676Z,1.1
2023-05-23T01:02:00.747Z,1.1
2023-05-23T01:03:00.726Z,1.1
2023-05-23T01:04:00.707Z,1.1
2023-05-23T01:05:00.702Z,1.1
2023-05-23T01:06:00.685Z,1.1
2023-05-23T01:07:00.703Z,1.1
2023-05-23T01:08:00.691Z,1.1
2023-05-23T01:09:00.683Z,1.1
2023-05-23T01:10:00.732Z,1.1
2023-05-23T01:11:00.685Z,1.1
2023-05-23T01:12:00.688Z,1.1
2023-05-23T01:13:00.691Z,1.1
2023-05-23T01:14:00.692Z,1.1
2023-05-23T01:15:00.735Z,1.1
2023-05-23T01:16:02.931Z,1.1
2023-05-23T01:17:00.695Z,1.1
2023-05-23T01:18:00.726Z,1.1
2023-05-23T01:19:00.723Z,1.1
2023-05-23T01:20:00.731Z,1.1
2023-05-23T01:21:00.699Z,1.1
2023-05-23T01:22:00.696Z,1.1
2023-05-23T01:23:00.696Z,1.1
2023-05-23T01:24:00.706Z,1.1
2023-05-23T01:25:00.751Z,1.1
2023-05-23T01:26:00.700Z,1.1
2023-05-23T01:27:00.706Z,1.1
2023-05-23T01:28:00.690Z,1.1
2023-05-23T01:29:00.744Z,1.1
2023-05-23T01:30:00.757Z,1.1
2023-05-23T01:31:00.726Z,1.1
2023-05-23T01:32:00.786Z,1.1
2023-05-23T01:33:00.777Z,1.1
2023-05-23T01:34:00.709Z,1.1
2023-05-23T01:35:00.651Z,1.1
2023-05-23T01:36:00.640Z,1.1
2023-05-23T01:37:00.597Z,1.1
2023-05-23T01:38:00.560Z,1.1
2023-05-23T01:39:00.538Z,1.1
2023-05-23T01:40:00.550Z,1.1
2023-05-23T01:41:00.491Z,1.1
2023-05-23T01:42:00.449Z,1.1
2023-05-23T01:43:00.442Z,1.1
2023-05-23T01:44:00.407Z,1.1
2023-05-23T01:45:00.368Z,1.1
2023-05-23T01:46:00.372Z,1.1
2023-05-23T01:47:00.357Z,1.1
2023-05-23T01:48:00.445Z,1.1
2023-05-23T01:49:00.363Z,1.1
2023-05-23T01:50:00.378Z,1.1
2023-05-23T01:51:00.340Z,1.1
2023-05-23T01:52:00.354Z,1.1
2023-05-23T01:53:00.346Z,1.1
2023-05-23T01:54:00.361Z,1.1
2023-05-23T01:55:00.360Z,1.1
2023-05-23T01:56:00.346Z,1.1
2023-05-23T01:57:00.352Z,1.1
2023-05-23T01:58:00.362Z,1.1
2023-05-23T01:59:00.356Z,1.1
2023-05-23T02:00:00.371Z,1.1
2023-05-23T02:01:02.180Z,1.1
2023-05-23T02:02:02.237Z,1.1
2023-05-23T02:03:02.239Z,1.1
2023-05-23T02:04:02.160Z,1.1
2023-05-23T02:05:02.175Z,1.1
2023-05-23T02:06:02.166Z,1.1
2023-05-23T02:07:02.166Z,1.1
2023-05-23T02:08:02.176Z,1.1
2023-05-23T02:09:02.173Z,1.1
2023-05-23T02:10:02.350Z,1.1
2023-05-23T02:11:02.163Z,1.1
2023-05-23T02:12:02.166Z,1.1
2023-05-23T02:13:02.160Z,1.1
2023-05-23T02:14:02.157Z,1.1
2023-05-23T02:15:02.187Z,1.1
2023-05-23T02:16:02.164Z,1.1
2023-05-23T02:17:02.250Z,1.1
2023-05-23T02:18:02.372Z,1.1
2023-05-23T02:19:02.267Z,1.1
2023-05-23T02:20:02.313Z,1.1
2023-05-23T02:21:02.186Z,1.1
2023-05-23T02:22:02.220Z,1.1
2023-05-23T02:23:02.169Z,1.1
2023-05-23T02:24:02.219Z,1.1
2023-05-23T02:25:02.199Z,1.1
2023-05-23T02:26:02.175Z,1.1
2023-05-23T02:27:02.202Z,1.1
2023-05-23T02:28:02.224Z,1.1
2023-05-23T02:29:02.224Z,1.1
2023-05-23T02:30:02.334Z,1.1
2023-05-23T02:31:02.240Z,1.1
2023-05-23T02:32:02.232Z,1.1
2023-05-23T02:33:02.195Z,1.1
2023-05-23T02:34:02.189Z,1.1
2023-05-23T02:35:02.208Z,1.1
2023-05-23T02:36:02.241Z,1.1
2023-05-23T02:37:02.190Z,1.1
2023-05-23T02:38:02.241Z,1.1
2023-05-23T02:39:02.189Z,1.1
2023-05-23T02:40:02.313Z,1.1
2023-05-23T02:41:02.207Z,1.1
2023-05-23T02:42:02.189Z,1.1
2023-05-23T02:43:02.220Z,1.1
2023-05-23T02:44:02.200Z,1.1
2023-05-23T02:45:02.236Z,1.1
2023-05-23T02:46:02.220Z,1.1
2023-05-23T02:47:02.208Z,1.1
2023-05-23T02:48:02.221Z,1.1
2023-05-23T02:49:02.240Z,1.1
2023-05-23T02:50:02.290Z,1.1
2023-05-23T02:51:02.216Z,1.1
2023-05-23T02:52:02.234Z,1.1
2023-05-23T02:53:02.227Z,1.1
2023-05-23T02:54:02.280Z,1.1
2023-05-23T02:55:02.231Z,1.1
2023-05-23T02:56:02.233Z,1.1
2023-05-23T02:57:02.219Z,1.1
2023-05-23T02:58:02.215Z,1.1
2023-05-23T02:59:02.228Z,1.1
2023-05-23T03:00:02.542Z,1.1
2023-05-23T03:01:02.230Z,1.1
2023-05-23T03:02:02.261Z,1.1
2023-05-23T03:03:02.315Z,1.1
2023-05-23T03:04:02.298Z,1.1
2023-05-23T03:05:02.365Z,1.1
2023-05-23T03:06:02.235Z,1.1
2023-05-23T03:07:02.967Z,1.1
2023-05-23T03:08:02.235Z,1.1
2023-05-23T03:09:02.229Z,1.2
2023-05-23T03:10:02.334Z,1.4
2023-05-23T03:11:02.242Z,1.6
2023-05-23T03:12:02.230Z,1.9
2023-05-23T03:13:02.221Z,2.2
2023-05-23T03:14:02.295Z,2.6
2023-05-23T03:15:02.316Z,3
2023-05-23T03:16:02.340Z,3.4
2023-05-23T03:17:02.249Z,4.1
2023-05-23T03:18:02.276Z,4.7
2023-05-23T03:19:02.311Z,5.4
2023-05-23T03:20:02.564Z,6.3
2023-05-23T03:21:02.312Z,7.3
2023-05-23T03:22:02.314Z,8.3
2023-05-23T03:23:02.252Z,9.6
2023-05-23T03:24:02.312Z,10.9
2023-05-23T03:25:02.348Z,12.5
2023-05-23T03:26:02.364Z,14.2
2023-05-23T03:27:02.516Z,16
2023-05-23T03:28:02.263Z,18.3
2023-05-23T03:29:02.252Z,20.4
2023-05-23T03:30:02.371Z,22.9
2023-05-23T03:31:02.252Z,25.3
2023-05-23T03:32:02.326Z,28.5
2023-05-23T03:33:02.345Z,31.7
2023-05-23T03:34:02.273Z,35.3
2023-05-23T03:35:02.247Z,38.8
2023-05-23T03:36:02.363Z,42.7
2023-05-23T03:37:02.335Z,47
2023-05-23T03:38:02.280Z,51.7
2023-05-23T03:39:02.277Z,56.9
2023-05-23T03:40:02.688Z,61.9
2023-05-23T03:41:02.253Z,68.1
2023-05-23T03:42:02.268Z,74.1
2023-05-23T03:43:02.255Z,80.5
2023-05-23T03:44:02.290Z,87.6
2023-05-23T03:45:02.288Z,94.1
2023-05-23T03:46:02.284Z,103.5
2023-05-23T03:47:02.262Z,111.2
2023-05-23T03:48:02.303Z,121
2023-05-23T03:49:02.299Z,130
2023-05-23T03:50:02.348Z,141.3
2023-05-23T03:51:02.272Z,151.8
2023-05-23T03:52:02.269Z,161.2
2023-05-23T03:53:02.289Z,171.1
2023-05-23T03:54:02.287Z,179.5
2023-05-23T03:55:02.284Z,190.5
2023-05-23T03:56:02.270Z,202.3
2023-05-23T03:57:02.278Z,212.2
2023-05-23T03:58:02.333Z,222.6
2023-05-23T03:59:02.282Z,233.5
2023-05-23T04:00:02.313Z,244.9
2023-05-23T04:01:02.372Z,256.9
2023-05-23T04:02:02.305Z,266.3
2023-05-23T04:03:02.400Z,279.4
2023-05-23T04:04:02.457Z,296.6
2023-05-23T04:05:02.277Z,307.4
2023-05-23T04:06:02.294Z,318.7
2023-05-23T04:07:02.316Z,330.3
2023-05-23T04:08:02.297Z,342.4
2023-05-23T04:09:02.270Z,350.6
2023-05-23T04:10:02.283Z,367.8
2023-05-23T04:11:02.297Z,381.3
2023-05-23T04:12:02.322Z,385.9
2023-05-23T04:13:02.328Z,399.9
2023-05-23T04:14:02.287Z,404.8
2023-05-23T04:15:02.380Z,419.6
2023-05-23T04:16:02.401Z,424.6
2023-05-23T04:17:02.299Z,434.9
2023-05-23T04:18:02.332Z,440.1
2023-05-23T04:19:04.189Z,450.8
2023-05-23T04:20:02.294Z,461.7
2023-05-23T04:21:02.285Z,478.5
2023-05-23T04:22:02.331Z,478.5
2023-05-23T04:23:02.335Z,490.1
2023-05-23T04:24:02.311Z,496
2023-05-23T04:25:02.305Z,502
2023-05-23T04:26:02.333Z,520.3
2023-05-23T04:27:02.317Z,526.6
2023-05-23T04:28:02.306Z,520.3
2023-05-23T04:29:02.302Z,514.1
2023-05-23T04:30:02.349Z,520.3
2023-05-23T04:31:02.368Z,539.3
2023-05-23T04:32:02.341Z,552.4
2023-05-23T04:33:02.355Z,593.4
2023-05-23T04:34:02.325Z,622.5
2023-05-23T04:35:02.332Z,637.6
2023-05-23T04:36:02.311Z,676.9
2023-05-23T04:37:02.317Z,701.6
2023-05-23T04:38:02.321Z,685.1
2023-05-23T04:39:02.330Z,668.8
2023-05-23T04:40:02.341Z,653
2023-05-23T04:41:02.329Z,660.9
2023-05-23T04:42:02.324Z,676.9
2023-05-23T04:43:02.325Z,685.1
2023-05-23T04:44:02.319Z,701.6
2023-05-23T04:45:02.471Z,701.6
2023-05-23T04:46:02.341Z,718.6
2023-05-23T04:47:02.423Z,718.6
2023-05-23T04:48:02.359Z,727.2
2023-05-23T04:49:02.361Z,753.8
2023-05-23T04:50:02.345Z,772.1
2023-05-23T04:51:02.376Z,772.1
2023-05-23T04:52:02.338Z,772.1
2023-05-23T04:53:02.344Z,772.1
2023-05-23T04:54:02.346Z,744.8
2023-05-23T04:55:02.362Z,693.3
2023-05-23T04:56:02.338Z,622.5
2023-05-23T04:57:02.337Z,600.6
2023-05-23T04:58:02.336Z,637.6
2023-05-23T04:59:02.344Z,637.6
2023-05-23T05:00:02.345Z,607.8
2023-05-23T05:01:02.382Z,565.7
2023-05-23T05:02:02.358Z,526.6
2023-05-23T05:03:02.404Z,539.3
2023-05-23T05:04:02.424Z,539.3
2023-05-23T05:05:02.344Z,508
2023-05-23T05:06:02.340Z,514.1
2023-05-23T05:07:02.362Z,496
2023-05-23T05:08:02.365Z,514.1
2023-05-23T05:09:02.388Z,514.1
2023-05-23T05:10:02.380Z,502
2023-05-23T05:11:02.348Z,490.1
2023-05-23T05:12:02.357Z,520.3
2023-05-23T05:13:02.347Z,532.9
2023-05-23T05:14:02.349Z,502
2023-05-23T05:15:02.353Z,508
2023-05-23T05:16:02.360Z,539.3
2023-05-23T05:17:02.400Z,552.4
2023-05-23T05:18:02.489Z,552.4
2023-05-23T05:19:02.371Z,552.4
2023-05-23T05:20:02.361Z,607.8
2023-05-23T05:21:02.373Z,653
2023-05-23T05:22:02.353Z,693.3
2023-05-23T05:23:02.388Z,676.9
2023-05-23T05:24:02.353Z,653
2023-05-23T05:25:02.380Z,660.9
2023-05-23T05:26:02.394Z,660.9
2023-05-23T05:27:02.361Z,701.6
2023-05-23T05:28:02.359Z,762.9
2023-05-23T05:29:02.383Z,839.5
2023-05-23T05:30:02.376Z,891.2
2023-05-23T05:31:02.413Z,946.1
2023-05-23T05:32:02.362Z,969
2023-05-23T05:33:02.409Z,1053.6
2023-05-23T05:34:02.388Z,1118.6
2023-05-23T05:35:02.402Z,1260.7
2023-05-23T05:36:02.421Z,1370.7
2023-05-23T05:37:02.422Z,1338.3
2023-05-23T05:38:02.377Z,1260.7
2023-05-23T05:39:02.394Z,1275.8
2023-05-23T05:40:02.393Z,1306.7
2023-05-23T05:41:02.381Z,1260.7
2023-05-23T05:42:02.395Z,1216.2
2023-05-23T05:43:02.407Z,1187.5
2023-05-23T05:44:02.375Z,1079.1
2023-05-23T05:45:02.372Z,1053.6
2023-05-23T05:46:02.479Z,1159.4
2023-05-23T05:47:02.385Z,1245.7
2023-05-23T05:48:02.446Z,1354.4
2023-05-23T05:49:02.413Z,1387.2
2023-05-23T05:50:02.408Z,1403.9
2023-05-23T05:51:02.393Z,1437.9
2023-05-23T05:52:02.390Z,1455.2
2023-05-23T05:53:02.426Z,1508.3
2023-05-23T05:54:02.418Z,1563.4
2023-05-23T05:55:02.435Z,1508.3
2023-05-23T05:56:02.400Z,1526.4
2023-05-23T05:57:02.408Z,1508.3
2023-05-23T05:58:02.414Z,1679.7
2023-05-23T05:59:02.402Z,1720.4
2023-05-23T06:00:02.414Z,1741
2023-05-23T06:01:02.405Z,1699.9
2023-05-23T06:02:02.423Z,1699.9
2023-05-23T06:03:02.511Z,1679.7
2023-05-23T06:04:02.688Z,1659.7
2023-05-23T06:05:02.468Z,1659.7
2023-05-23T06:06:02.443Z,1601.3
2023-05-23T06:07:02.437Z,1544.8
2023-05-23T06:08:02.409Z,1544.8
2023-05-23T06:09:02.426Z,1526.4
2023-05-23T06:10:02.431Z,1490.4
2023-05-23T06:11:02.413Z,1403.9
2023-05-23T06:12:02.414Z,1455.2
2023-05-23T06:13:02.424Z,1387.2
2023-05-23T06:14:02.424Z,1354.4
2023-05-23T06:15:02.444Z,1420.8
2023-05-23T06:16:02.573Z,1582.3
2023-05-23T06:17:02.470Z,1870.6
2023-05-23T06:18:02.547Z,1962.2
2023-05-23T06:19:02.492Z,1915.9
2023-05-23T06:20:02.474Z,1870.6
2023-05-23T06:21:02.471Z,1962.2
2023-05-23T06:22:02.417Z,2083.2
2023-05-23T06:23:02.464Z,2133.6
2023-05-23T06:24:02.504Z,2159.2
2023-05-23T06:25:02.465Z,2009.8
2023-05-23T06:26:02.515Z,1915.9
2023-05-23T06:27:02.496Z,1804.7
2023-05-23T06:28:02.466Z,1720.4
2023-05-23T06:29:02.474Z,1826.4
2023-05-23T06:30:02.451Z,1826.4
2023-05-23T06:31:02.487Z,1699.9
2023-05-23T06:32:02.561Z,1679.7
2023-05-23T06:33:02.493Z,1783.3
2023-05-23T06:34:02.499Z,1783.3
2023-05-23T06:35:02.495Z,1659.7
2023-05-23T06:36:02.480Z,1720.4
2023-05-23T06:37:02.516Z,1915.9
2023-05-23T06:38:02.464Z,2433.5
2023-05-23T06:39:02.510Z,2583.5
2023-05-23T06:40:02.518Z,2677.9
2023-05-23T06:41:02.445Z,2710.1
2023-05-23T06:42:02.494Z,2877.1
2023-05-23T06:43:02.505Z,2982.2
2023-05-23T06:44:02.579Z,2946.7
2023-05-23T06:45:02.542Z,2946.7
2023-05-23T06:46:02.529Z,2946.7
2023-05-23T06:47:02.565Z,3018
2023-05-23T06:48:02.630Z,3054.3
2023-05-23T06:49:14.437Z,2946.7
2023-05-23T06:50:02.514Z,2911.7
2023-05-23T06:51:02.502Z,2946.7
2023-05-23T06:52:02.577Z,2946.7
2023-05-23T06:53:02.514Z,2982.2
2023-05-23T06:54:02.501Z,3091.1
2023-05-23T06:55:02.521Z,2877.1
2023-05-23T06:56:02.553Z,2742.6
2023-05-23T06:57:02.487Z,3018
2023-05-23T06:58:02.526Z,3242.6
2023-05-23T06:59:02.466Z,3204.1
2023-05-23T07:00:02.470Z,3321.1
2023-05-23T07:01:02.576Z,3611.1
2023-05-23T07:02:02.491Z,3742.9
2023-05-23T07:03:02.520Z,3742.9
2023-05-23T07:04:02.484Z,3654.5
2023-05-23T07:05:02.582Z,3611.1
2023-05-23T07:06:02.507Z,3525.6
2023-05-23T07:07:02.496Z,3611.1
2023-05-23T07:08:02.491Z,3483.7
2023-05-23T07:09:02.481Z,3442.3
2023-05-23T07:10:02.499Z,3654.5
2023-05-23T07:11:02.482Z,4118.8
2023-05-23T07:12:02.487Z,3926.3
2023-05-23T07:13:02.498Z,3833.5
2023-05-23T07:14:02.497Z,3654.5
2023-05-23T07:15:02.493Z,3654.5
2023-05-23T07:16:02.490Z,3442.3
2023-05-23T07:17:02.555Z,3401.4
2023-05-23T07:18:02.577Z,3321.1
2023-05-23T07:19:02.494Z,3018
2023-05-23T07:20:02.514Z,2842.8
2023-05-23T07:21:02.497Z,3054.3
2023-05-23T07:22:02.501Z,3242.6
2023-05-23T07:23:02.486Z,3128.2
2023-05-23T07:24:02.485Z,2946.7
2023-05-23T07:25:02.555Z,2646
2023-05-23T07:26:03.306Z,2319.9
2023-05-23T07:27:02.490Z,1938.9
2023-05-23T07:28:02.488Z,1848.4
2023-05-23T07:29:02.496Z,1848.4
2023-05-23T07:30:02.534Z,1915.9
2023-05-23T07:31:02.540Z,2009.8
2023-05-23T07:32:02.496Z,2211.5
2023-05-23T07:33:02.556Z,2347.8
2023-05-23T07:34:02.587Z,2319.9
2023-05-23T07:35:00.409Z,2211.5
2023-05-23T07:36:00.432Z,2034
2023-05-23T07:37:00.431Z,1962.2
2023-05-23T07:38:00.403Z,2159.2
2023-05-23T07:39:00.404Z,2462.8
2023-05-23T07:40:00.418Z,2583.5
2023-05-23T07:41:10.894Z,2742.6
2023-05-23T07:42:00.406Z,2946.7
2023-05-23T07:43:00.439Z,3165.8
2023-05-23T07:44:00.431Z,3401.4
2023-05-23T07:45:00.410Z,3568
2023-05-23T07:46:00.490Z,3483.7
2023-05-23T07:47:00.595Z,3401.4
2023-05-23T07:48:00.478Z,3401.4
2023-05-23T07:49:00.431Z,3611.1
2023-05-23T07:50:00.430Z,3788
2023-05-23T07:51:00.439Z,3833.5
2023-05-23T07:52:00.438Z,3833.5
2023-05-23T07:53:00.408Z,3926.3
2023-05-23T07:54:00.402Z,4021.3
2023-05-23T07:55:00.442Z,3926.3
2023-05-23T07:56:00.411Z,3742.9
2023-05-23T07:57:00.410Z,3833.5
2023-05-23T07:58:00.424Z,3833.5
2023-05-23T07:59:00.427Z,3742.9
2023-05-23T08:00:00.440Z,3879.6
2023-05-23T08:01:00.410Z,3788
2023-05-23T08:02:00.456Z,3742.9
2023-05-23T08:03:00.461Z,3483.7
2023-05-23T08:04:00.636Z,3442.3
2023-05-23T08:05:00.465Z,3742.9
2023-05-23T08:06:00.443Z,3926.3
2023-05-23T08:07:05.511Z,4118.8
2023-05-23T08:08:00.444Z,4218.4
2023-05-23T08:09:00.428Z,4372.4
2023-05-23T08:10:00.487Z,4372.4
2023-05-23T08:11:00.444Z,4425
2023-05-23T08:12:00.697Z,4478.2
2023-05-23T08:13:00.485Z,4532.1
2023-05-23T08:14:01.574Z,4532.1
2023-05-23T08:15:00.460Z,4425
2023-05-23T08:16:00.522Z,4642
2023-05-23T08:17:00.580Z,5107.8
2023-05-23T08:18:00.516Z,5553.9
2023-05-23T08:19:00.616Z,5756.7
2023-05-23T08:20:00.458Z,4811.5
2023-05-23T08:21:00.459Z,4532.1
2023-05-23T08:22:00.454Z,4532.1
2023-05-23T08:23:00.462Z,4425
2023-05-23T08:24:00.467Z,4320.5
2023-05-23T08:25:00.462Z,4118.8
2023-05-23T08:26:00.462Z,4320.5
2023-05-23T08:27:00.450Z,4532.1
2023-05-23T08:28:00.471Z,4532.1
2023-05-23T08:29:00.459Z,4425
2023-05-23T08:30:00.546Z,4478.2
2023-05-23T08:31:00.449Z,4532.1
2023-05-23T08:32:00.501Z,4532.1
2023-05-23T08:33:00.503Z,4642
2023-05-23T08:34:00.488Z,4869.3
2023-05-23T08:35:00.497Z,5107.8
2023-05-23T08:36:00.460Z,4987.1
2023-05-23T08:37:00.490Z,4697.8
2023-05-23T08:38:01.486Z,4754.3
2023-05-23T08:39:00.479Z,4532.1
2023-05-23T08:40:00.526Z,4869.3
2023-05-23T08:41:00.479Z,5553.9
2023-05-23T08:42:00.463Z,6410.8
2023-05-23T08:43:00.504Z,6410.8
2023-05-23T08:44:00.469Z,6410.8
2023-05-23T08:45:00.469Z,5756.7
2023-05-23T08:46:00.522Z,5169.5
2023-05-23T08:47:00.492Z,4754.3
2023-05-23T08:48:00.553Z,4320.5
2023-05-23T08:49:00.475Z,4811.5
2023-05-23T08:50:00.508Z,3525.6
2023-05-23T08:51:00.499Z,3321.1
2023-05-23T08:52:00.507Z,3401.4
2023-05-23T08:53:00.471Z,3973.5
2023-05-23T08:54:00.480Z,3165.8
2023-05-23T08:55:00.474Z,2710.1
2023-05-23T08:56:00.476Z,2265.1
2023-05-23T08:57:00.486Z,2083.2
2023-05-23T08:58:00.692Z,2058.4
2023-05-23T08:59:00.484Z,2159.2
2023-05-23T09:00:00.507Z,2552.8
2023-05-23T09:01:00.483Z,3018
2023-05-23T09:02:00.711Z,3361
2023-05-23T09:03:00.524Z,3321.1
2023-05-23T09:04:00.506Z,3091.1
2023-05-23T09:05:00.552Z,2982.2
2023-05-23T09:06:00.541Z,2982.2
2023-05-23T09:07:00.515Z,3091.1
2023-05-23T09:08:00.498Z,3321.1
2023-05-23T09:09:00.513Z,3742.9
2023-05-23T09:10:00.529Z,4118.8
2023-05-23T09:11:00.487Z,4869.3
2023-05-23T09:12:00.515Z,5487.9
2023-05-23T09:13:00.771Z,5553.9
2023-05-23T09:14:00.504Z,6038.9
2023-05-23T09:15:00.497Z,6334.7
2023-05-23T09:16:00.581Z,6487.9
2023-05-23T09:17:02.485Z,6487.9
2023-05-23T09:18:00.532Z,6970.7
2023-05-23T09:19:00.536Z,6645.2
2023-05-23T09:20:00.531Z,5688.3
2023-05-23T09:21:00.504Z,5231.6
2023-05-23T09:22:00.543Z,4642
2023-05-23T09:23:03.577Z,4425
2023-05-23T09:24:00.517Z,3128.2
2023-05-23T09:25:00.635Z,4069.8
2023-05-23T09:26:00.527Z,2462.8
2023-05-23T09:27:00.516Z,2108.2
2023-05-23T09:28:00.515Z,1870.6
2023-05-23T09:29:00.517Z,1563.4
2023-05-23T09:30:00.921Z,1322.4
2023-05-23T09:31:00.523Z,1173.3
2023-05-23T09:32:00.611Z,1079.1
2023-05-23T09:33:03.896Z,1132
2023-05-23T09:34:00.553Z,1230.8
2023-05-23T09:35:00.564Z,1370.7
2023-05-23T09:36:00.546Z,1640
2023-05-23T09:37:00.535Z,1870.6
2023-05-23T09:38:00.534Z,1962.2
2023-05-23T09:39:02.714Z,1962.2
2023-05-23T09:40:00.790Z,2034
2023-05-23T09:41:00.531Z,2238.1
2023-05-23T09:42:00.555Z,2492.4
2023-05-23T09:43:00.560Z,2911.7
2023-05-23T09:44:00.579Z,3401.4
2023-05-23T09:45:03.198Z,4021.3
2023-05-23T09:46:00.541Z,4425
2023-05-23T09:47:00.593Z,4754.3
2023-05-23T09:48:00.622Z,4320.5
2023-05-23T09:49:00.547Z,3568
2023-05-23T09:50:00.567Z,2842.8
2023-05-23T09:51:02.890Z,2404.6
2023-05-23T09:52:00.559Z,2009.8
2023-05-23T09:53:00.535Z,1783.3
2023-05-23T09:54:00.565Z,1582.3
2023-05-23T09:55:00.588Z,1370.7
2023-05-23T09:56:00.558Z,1118.6
2023-05-23T09:57:00.566Z,912.8
2023-05-23T09:58:00.559Z,849.6
2023-05-23T09:59:00.544Z,891.2
2023-05-23T10:00:00.637Z,992.5
2023-05-23T10:01:00.593Z,1173.3
2023-05-23T10:02:00.548Z,1437.9
2023-05-23T10:03:00.572Z,1699.9
2023-05-23T10:04:00.771Z,1985.8
2023-05-23T10:05:00.571Z,2292.3
2023-05-23T10:06:00.559Z,2552.8
2023-05-23T10:07:00.584Z,2677.9
2023-05-23T10:08:00.553Z,2552.8
2023-05-23T10:09:00.561Z,2462.8
2023-05-23T10:10:00.724Z,2376
2023-05-23T10:11:00.559Z,2404.6
2023-05-23T10:12:00.560Z,2522.4
2023-05-23T10:13:00.558Z,2677.9
2023-05-23T10:14:00.557Z,2877.1
2023-05-23T10:15:00.606Z,3054.3
2023-05-23T10:16:00.568Z,3128.2
2023-05-23T10:17:00.573Z,3018
2023-05-23T10:18:00.622Z,2946.7
2023-05-23T10:19:00.597Z,2946.7
2023-05-23T10:20:00.626Z,2842.8
2023-05-23T10:21:00.590Z,4372.4
2023-05-23T10:22:00.577Z,4642
2023-05-23T10:23:00.565Z,4754.3
2023-05-23T10:24:00.585Z,3401.4
2023-05-23T10:25:00.599Z,3361
2023-05-23T10:26:00.575Z,4869.3
2023-05-23T10:27:00.564Z,5047.1
2023-05-23T10:28:03.915Z,3165.8
2023-05-23T10:29:00.597Z,3091.1
2023-05-23T10:30:00.620Z,3483.7
2023-05-23T10:31:00.698Z,4811.5
2023-05-23T10:32:00.593Z,4754.3
2023-05-23T10:33:00.649Z,4754.3
2023-05-23T10:34:00.632Z,4754.3
2023-05-23T10:35:00.611Z,4586.8
2023-05-23T10:36:00.632Z,4697.8
2023-05-23T10:37:00.628Z,4218.4
2023-05-23T10:38:00.574Z,5358.2
2023-05-23T10:39:00.625Z,6259.4
2023-05-23T10:40:00.725Z,6806
2023-05-23T10:41:00.618Z,6410.8
2023-05-23T10:42:00.649Z,5896.2
2023-05-23T10:43:00.626Z,5231.6
2023-05-23T10:44:00.660Z,3698.5
2023-05-23T10:45:01.481Z,2614.6
2023-05-23T10:46:00.739Z,2347.8
2023-05-23T10:47:00.635Z,2492.4
2023-05-23T10:48:00.638Z,2775.6
2023-05-23T10:49:00.666Z,3091.1
2023-05-23T10:50:00.766Z,3568
2023-05-23T10:51:00.642Z,6259.4
2023-05-23T10:52:00.628Z,6410.8
2023-05-23T10:53:00.608Z,4869.3
2023-05-23T10:54:00.627Z,4372.4
2023-05-23T10:55:00.859Z,6038.9
2023-05-23T10:56:00.633Z,3926.3
2023-05-23T10:57:00.637Z,4168.3
2023-05-23T10:58:00.626Z,4425
2023-05-23T10:59:00.629Z,4869.3
2023-05-23T11:00:00.880Z,4987.1
2023-05-23T11:01:00.707Z,4869.3
2023-05-23T11:02:00.659Z,4425
2023-05-23T11:03:00.885Z,4532.1
2023-05-23T11:04:00.929Z,4869.3
2023-05-23T11:05:00.785Z,5231.6
2023-05-23T11:06:00.629Z,5553.9
2023-05-23T11:07:00.648Z,6334.7
2023-05-23T11:08:00.626Z,5358.2
2023-05-23T11:09:00.634Z,4586.8
2023-05-23T11:10:00.676Z,4586.8
2023-05-23T11:11:00.627Z,4425
2023-05-23T11:12:00.620Z,4372.4
2023-05-23T11:13:00.622Z,4372.4
2023-05-23T11:14:00.925Z,4642
2023-05-23T11:15:00.682Z,4987.1
2023-05-23T11:16:00.648Z,5231.6
2023-05-23T11:17:00.764Z,5487.9
2023-05-23T11:18:00.642Z,6111.5
2023-05-23T11:19:00.699Z,8542.3
2023-05-23T11:20:00.726Z,7312.1
2023-05-23T11:21:00.637Z,9860.4
2023-05-23T11:22:00.724Z,9743.2
2023-05-23T11:23:00.637Z,9399.5
2023-05-23T11:24:00.653Z,7670.6
2023-05-23T11:25:00.644Z,8854.2
2023-05-23T11:26:00.651Z,8749
2023-05-23T11:27:00.644Z,7400.4
2023-05-23T11:28:00.652Z,5967.1
2023-05-23T11:29:00.668Z,4532.1
2023-05-23T11:30:00.712Z,3611.1
2023-05-23T11:31:00.706Z,3128.2
2023-05-23T11:32:00.715Z,2462.8
2023-05-23T11:33:00.753Z,2211.5
2023-05-23T11:34:00.688Z,1962.2
2023-05-23T11:35:00.655Z,1848.4
2023-05-23T11:36:00.694Z,1893.1
2023-05-23T11:37:00.650Z,2083.2
2023-05-23T11:38:00.652Z,2492.4
2023-05-23T11:39:00.677Z,2877.1
2023-05-23T11:40:00.680Z,3242.6
2023-05-23T11:41:00.667Z,3568
2023-05-23T11:42:00.658Z,3879.6
2023-05-23T11:43:00.696Z,3973.5
2023-05-23T11:44:00.696Z,3973.5
2023-05-23T11:45:00.711Z,4218.4
2023-05-23T11:46:00.703Z,4320.5
2023-05-23T11:47:00.720Z,4642
2023-05-23T11:48:00.671Z,4811.5
2023-05-23T11:49:00.693Z,4642
2023-05-23T11:50:00.722Z,3788
2023-05-23T11:51:00.697Z,3054.3
2023-05-23T11:52:00.694Z,2433.5
2023-05-23T11:53:00.696Z,1985.8
2023-05-23T11:54:00.686Z,1640
2023-05-23T11:55:03.690Z,1354.4
2023-05-23T11:56:00.862Z,1132
2023-05-23T11:57:00.671Z,992.5
2023-05-23T11:58:00.676Z,859.8
2023-05-23T11:59:00.734Z,772.1
2023-05-23T12:00:00.746Z,736
2023-05-23T12:01:00.682Z,762.9
2023-05-23T12:02:00.750Z,829.5
2023-05-23T12:03:00.798Z,912.8
2023-05-23T12:04:00.726Z,1041.1
2023-05-23T12:05:00.833Z,1132
2023-05-23T12:06:00.699Z,1016.5
2023-05-23T12:07:00.712Z,946.1
2023-05-23T12:08:00.707Z,969
2023-05-23T12:09:00.675Z,1092.1
2023-05-23T12:10:00.827Z,1275.8
2023-05-23T12:11:00.680Z,1437.9
2023-05-23T12:12:00.688Z,1508.3
2023-05-23T12:13:00.706Z,1526.4
2023-05-23T12:14:00.733Z,1526.4
2023-05-23T12:15:00.709Z,1508.3
2023-05-23T12:16:00.801Z,1437.9
2023-05-23T12:17:00.702Z,1275.8
2023-05-23T12:18:00.841Z,1092.1
2023-05-23T12:19:00.817Z,880.6
2023-05-23T12:20:00.707Z,772.1
2023-05-23T12:21:00.726Z,718.6
2023-05-23T12:22:00.687Z,645.3
2023-05-23T12:23:00.692Z,645.3
2023-05-23T12:24:00.686Z,718.6
2023-05-23T12:25:00.699Z,870.2
2023-05-23T12:26:00.687Z,1066.3
2023-05-23T12:27:00.700Z,1338.3
2023-05-23T12:28:00.740Z,1563.4
2023-05-23T12:29:00.704Z,1640
2023-05-23T12:30:00.730Z,1659.7
2023-05-23T12:31:00.777Z,1699.9
2023-05-23T12:32:00.701Z,1679.7
2023-05-23T12:33:00.761Z,1720.4
2023-05-23T12:34:00.708Z,1741
2023-05-23T12:35:00.761Z,1582.3
2023-05-23T12:36:00.708Z,1526.4
2023-05-23T12:37:14.870Z,1508.3
2023-05-23T12:38:00.706Z,1403.9
2023-05-23T12:39:00.724Z,1420.8
2023-05-23T12:40:00.759Z,1601.3
2023-05-23T12:41:00.709Z,1962.2
2023-05-23T12:42:00.735Z,2376
2023-05-23T12:43:00.726Z,2742.6
2023-05-23T12:44:00.722Z,2877.1
2023-05-23T12:45:00.718Z,2677.9
2023-05-23T12:46:00.725Z,2319.9
2023-05-23T12:47:00.876Z,2108.2
2023-05-23T12:48:00.766Z,2292.3
2023-05-23T12:49:00.751Z,2614.6
2023-05-23T12:50:00.762Z,2809
2023-05-23T12:51:00.742Z,2911.7
2023-05-23T12:52:00.743Z,3018
2023-05-23T12:53:00.750Z,3018
2023-05-23T12:54:00.725Z,3018
2023-05-23T12:55:00.735Z,2982.2
2023-05-23T12:56:00.729Z,2982.2
2023-05-23T12:57:00.745Z,2982.2